Time;durP1;ratioP1;P1;durP2;ratioP2;P2;SDS_P1;SDS_P2;PMS_P1;PMS_P2;Temp;Humidity;BMP_temperature;BMP_pressure;BME280_temperature;BME280_humidity;BME280_pressure;Samples;Min_cycle;Max_cycle;Signal;HPM_P1;HPM_P2
2022/11/12 00:03:36;;;;;;;5.55;3.97;;;10.70;56.20;;;9.29;57.96;102763.75;12180243;19;20492;-87
2022/11/12 00:07:57;;;;;;;3.92;3.50;;;10.60;56.20;;;9.36;57.79;102783.59;12179793;19;20010;-89
2022/11/12 00:12:17;;;;;;;4.05;3.63;;;10.80;56.40;;;9.45;57.93;102806.03;12177735;19;20018;-87
2022/11/12 00:16:37;;;;;;;3.95;3.42;;;10.60;56.20;;;9.38;57.77;102799.22;12175209;19;20860;-87
2022/11/12 00:20:58;;;;;;;3.75;3.38;;;10.50;56.10;;;9.37;57.80;102807.91;12174024;19;20022;-87
2022/11/12 00:25:18;;;;;;;3.22;2.92;;;10.50;56.20;;;9.27;58.01;102797.66;12162629;19;20018;-88
2022/11/12 00:29:39;;;;;;;3.45;3.10;;;10.40;56.20;;;9.31;57.82;102809.72;12159505;19;20030;-88
2022/11/12 00:34:00;;;;;;;3.20;2.40;;;10.40;56.20;;;9.14;57.79;102783.09;12164229;19;20022;-88
2022/11/12 00:38:20;;;;;;;4.10;2.90;;;10.30;56.20;;;9.26;57.96;102811.59;12169423;19;20296;-87
2022/11/12 00:42:41;;;;;;;2.13;2.03;;;10.20;56.20;;;9.20;57.92;102808.19;12172501;19;20317;-88
2022/11/12 00:47:01;;;;;;;2.78;2.40;;;10.30;56.30;;;8.97;57.91;102769.47;12172590;19;20057;-88
2022/11/12 00:51:21;;;;;;;2.30;2.00;;;10.30;56.70;;;9.18;57.93;102796.94;12173708;19;20011;-88
2022/11/12 00:55:42;;;;;;;2.70;2.35;;;10.30;56.30;;;9.06;58.09;102782.34;12171438;19;20014;-88
2022/11/12 01:00:05;;;;;;;3.88;2.15;;;10.20;56.30;;;9.16;58.18;102804.78;12177237;19;20022;-88
2022/11/12 01:04:25;;;;;;;3.15;2.42;;;10.20;56.30;;;9.19;58.04;102809.94;12175389;19;20019;-88
2022/11/12 01:08:49;;;;;;;2.47;2.28;;;10.20;56.30;;;8.92;58.07;102760.88;12178724;19;20007;-88
2022/11/12 01:13:10;;;;;;;2.55;2.10;;;10.20;56.30;;;9.15;58.08;102799.59;12176589;19;20019;-88
2022/11/12 01:17:31;;;;;;;3.55;2.25;;;10.20;56.30;;;9.06;58.03;102791.03;12177229;19;20456;-88
2022/11/12 01:21:51;;;;;;;2.25;2.05;;;10.20;56.20;;;9.12;58.22;102803.09;12176754;19;20799;-88
2022/11/12 01:26:17;;;;;;;3.30;2.08;;;10.20;56.20;;;9.10;57.92;102802.28;12176854;19;20015;-88
2022/11/12 01:30:37;;;;;;;2.83;2.63;;;10.20;56.50;;;9.01;58.07;102786.78;12179232;19;20586;-88
2022/11/12 01:34:58;;;;;;;3.10;1.95;;;10.20;56.20;;;9.01;58.20;102784.16;12174585;19;20027;-87
2022/11/12 01:39:18;;;;;;;2.17;2.05;;;10.20;56.20;;;9.03;58.28;102792.84;12177810;19;20019;-87
2022/11/12 01:43:38;;;;;;;2.55;2.33;;;10.20;56.30;;;9.05;58.13;102791.94;12197458;19;20759;-87
2022/11/12 01:47:59;;;;;;;2.45;2.13;;;10.10;56.20;;;8.99;58.27;102793.75;12206950;19;20287;-87
2022/11/12 01:52:40;;;;;;;1.85;1.75;;;10.10;56.10;;;8.94;58.30;102803.38;12199726;19;20102;-87
2022/11/12 01:57:01;;;;;;;2.30;2.10;;;10.10;56.10;;;8.94;58.32;102808.59;12203210;19;20019;-87
2022/11/12 02:01:22;;;;;;;3.25;2.20;;;10.10;56.10;;;8.81;58.30;102781.88;12205949;19;20014;-87
2022/11/12 02:05:45;;;;;;;2.83;2.25;;;10.10;56.10;;;8.90;58.08;102804.31;12200614;19;20018;-88
2022/11/12 02:10:08;;;;;;;2.10;1.90;;;10.10;56.10;;;8.93;58.29;102809.47;12203500;19;20018;-87
2022/11/12 02:14:30;;;;;;;3.28;2.30;;;10.00;56.00;;;8.88;58.02;102819.09;12192973;19;20779;-88
2022/11/12 02:18:50;;;;;;;1.90;1.70;;;10.00;55.90;;;8.77;58.04;102798.41;12208258;19;20026;-88
2022/11/12 02:23:11;;;;;;;3.13;1.73;;;10.00;56.00;;;8.74;58.20;102816.69;12201850;19;20022;-87
2022/11/12 02:27:32;;;;;;;2.00;1.83;;;9.90;56.00;;;8.62;58.15;102808.19;12201139;19;20026;-87
2022/11/12 02:31:52;;;;;;;2.13;1.85;;;9.90;56.00;;;8.53;58.28;102808.31;12205891;19;20011;-87
2022/11/12 02:36:12;;;;;;;3.22;1.90;;;9.90;56.00;;;8.58;58.27;102826.47;12208442;19;20538;-87
2022/11/12 02:40:33;;;;;;;1.98;1.73;;;9.80;55.90;;;8.40;58.11;102820.63;12208836;19;20014;-87
2022/11/12 02:44:53;;;;;;;1.80;1.70;;;9.70;55.80;;;8.46;58.06;102831.84;12205567;19;20018;-87
2022/11/12 02:49:14;;;;;;;1.70;1.60;;;9.70;55.90;;;8.41;58.22;102839.69;12208312;19;20018;-87
2022/11/12 02:53:35;;;;;;;1.98;1.63;;;9.60;55.90;;;8.27;58.06;102842.44;12193318;19;20673;-87
2022/11/12 02:57:57;;;;;;;1.55;1.40;;;9.70;56.00;;;8.09;58.07;102827.88;12191625;19;20026;-87
2022/11/12 03:02:18;;;;;;;2.30;1.70;;;9.50;55.90;;;8.20;58.05;102857.22;12189407;19;20018;-87
2022/11/12 03:06:38;;;;;;;1.40;1.30;;;9.50;55.90;;;8.19;58.20;102859.88;12193285;19;20022;-87
2022/11/12 03:11:05;;;;;;;1.42;1.33;;;9.40;56.00;;;8.15;58.38;102851.22;12191333;19;20014;-87
2022/11/12 03:15:27;;;;;;;1.65;1.55;;;9.40;56.10;;;8.00;58.19;102842.75;12189973;19;20018;-87
2022/11/12 03:19:48;;;;;;;1.30;1.20;;;9.40;56.10;;;8.20;58.05;102885.88;12192591;19;20484;-87
2022/11/12 03:24:09;;;;;;;2.00;1.77;;;9.40;56.00;;;8.15;58.21;102884.19;12186301;19;20379;-87
2022/11/12 03:28:29;;;;;;;1.58;1.48;;;9.30;56.00;;;8.12;58.24;102881.63;12190536;19;20050;-87
2022/11/12 03:32:50;;;;;;;1.48;1.38;;;9.30;56.00;;;8.03;58.11;102876.53;12189438;19;20023;-87
2022/11/12 03:37:10;;;;;;;1.48;1.38;;;9.20;55.90;;;8.00;58.27;102881.75;12186717;19;20597;-87
2022/11/12 03:41:30;;;;;;;1.55;1.25;;;9.20;55.90;;;7.93;58.27;102870.53;12184704;19;20497;-87
2022/11/12 03:45:51;;;;;;;1.40;1.30;;;9.20;56.00;;;7.76;58.06;102842.09;12186830;19;20624;-87
2022/11/12 03:50:14;;;;;;;2.10;1.30;;;9.10;56.00;;;7.96;58.29;102875.72;12186745;19;20018;-86
2022/11/12 03:54:34;;;;;;;1.85;1.15;;;9.10;56.00;;;7.84;58.45;102860.22;12180737;19;20018;-87
2022/11/12 03:58:55;;;;;;;2.22;1.10;;;9.10;56.10;;;7.89;58.33;102872.31;12185787;19;20011;-87
2022/11/12 04:03:15;;;;;;;1.92;1.30;;;9.10;56.10;;;7.92;58.44;102874.03;12180624;19;20026;-88
2022/11/12 04:21:54;;;;;;;1.17;1.08;;;9.00;56.00;;;7.81;58.44;102879.31;12166421;19;20913;-86
2022/11/12 04:26:23;;;;;;;1.92;1.25;;;9.00;56.00;;;7.70;58.24;102866.41;12157108;19;20368;-86
2022/11/12 04:30:44;;;;;;;1.48;1.27;;;9.30;56.00;;;7.82;58.50;102895.78;12158984;19;20308;-86
2022/11/12 04:35:06;;;;;;;2.13;1.40;;;9.00;55.90;;;7.75;58.47;102893.25;12158719;19;20073;-86
2022/11/12 04:39:27;;;;;;;1.38;1.23;;;9.00;56.10;;;7.76;58.51;102896.72;12163639;19;20015;-87
2022/11/12 04:48:27;;;;;;;1.58;1.30;;;8.90;56.00;;;7.60;58.46;102882.09;12159039;19;20019;-86
2022/11/12 04:52:47;;;;;;;1.65;1.52;;;8.90;56.30;;;7.38;58.35;102834.63;12159952;19;20831;-89
2022/11/12 04:57:08;;;;;;;1.88;1.15;;;8.90;56.00;;;7.56;58.56;102881.28;12158349;19;21135;-87
2022/11/12 05:01:29;;;;;;;1.45;1.27;;;8.90;56.00;;;7.65;58.39;102890.72;12160075;19;20878;-86
2022/11/12 05:05:49;;;;;;;1.38;1.27;;;8.90;56.00;;;7.61;58.44;102892.47;12156373;19;20863;-87
2022/11/12 05:10:10;;;;;;;1.25;1.15;;;9.00;56.00;;;7.63;58.69;102906.34;12155274;19;20029;-86
2022/11/12 05:14:30;;;;;;;2.47;1.50;;;8.80;56.00;;;7.52;58.51;102902.97;12151487;19;20364;-87
2022/11/12 05:18:51;;;;;;;1.95;1.30;;;8.80;56.00;;;7.44;58.38;102896.94;12157292;19;20018;-87
2022/11/12 05:23:11;;;;;;;1.55;1.30;;;8.80;56.00;;;7.24;58.36;102860.72;12152041;19;20756;-87
2022/11/12 05:27:32;;;;;;;1.08;1.05;;;8.90;56.10;;;7.20;58.34;102859.00;12157506;19;20105;-87
2022/11/12 05:31:53;;;;;;;1.58;1.48;;;8.70;55.90;;;7.44;58.41;102916.00;12155872;19;20014;-87
2022/11/12 05:36:13;;;;;;;1.40;1.30;;;8.70;55.90;;;7.48;58.34;102922.94;12155456;19;20023;-87
2022/11/12 05:40:34;;;;;;;1.58;1.48;;;8.90;56.00;;;7.36;58.57;102898.75;12156595;19;20019;-88
2022/11/12 05:44:54;;;;;;;1.90;1.35;;;8.70;56.00;;;7.40;58.53;102913.44;12151215;19;20943;-87
2022/11/12 05:49:16;;;;;;;2.05;1.23;;;8.60;55.90;;;7.23;58.60;102879.75;12154746;19;20022;-87
2022/11/12 05:53:37;;;;;;;1.48;1.23;;;8.60;56.00;;;7.37;58.58;102916.94;12154501;19;20316;-87
2022/11/12 05:57:57;;;;;;;3.03;1.35;;;8.60;56.00;;;7.32;58.65;102921.31;12155073;19;20019;-87
2022/11/12 06:02:18;;;;;;;1.40;1.30;;;8.60;56.00;;;7.36;58.48;102927.34;12151530;19;20018;-87
2022/11/12 06:06:40;;;;;;;1.88;1.52;;;8.80;56.10;;;7.34;58.63;102922.13;12159969;19;20014;-87
2022/11/12 06:11:00;;;;;;;1.42;1.33;;;8.60;55.90;;;7.20;58.48;102903.16;12156204;19;20015;-87
2022/11/12 06:15:21;;;;;;;1.42;1.33;;;8.50;55.80;;;7.07;58.56;102894.56;12148930;19;20309;-87
2022/11/12 06:19:41;;;;;;;1.40;1.30;;;8.50;55.80;;;7.22;58.43;102924.81;12159916;19;20411;-87
2022/11/12 06:24:02;;;;;;;1.90;1.40;;;8.60;55.80;;;7.19;58.35;102936.09;12151982;19;20773;-87
2022/11/12 06:28:22;;;;;;;1.50;1.38;;;8.40;55.60;;;6.88;58.47;102891.22;12154560;19;20011;-87
2022/11/12 06:32:47;;;;;;;1.10;1.00;;;8.40;55.60;;;7.12;58.47;102942.19;12165826;19;20684;-87
2022/11/12 06:37:08;;;;;;;3.40;1.48;;;8.40;55.70;;;6.70;58.32;102878.31;12162219;19;20085;-87
2022/11/12 06:41:28;;;;;;;1.63;1.50;;;8.30;55.60;;;7.00;58.43;102929.28;12164578;19;20094;-87
2022/11/12 06:45:48;;;;;;;4.22;3.10;;;8.30;55.70;;;6.86;58.63;102925.00;12164628;19;20594;-87
2022/11/12 06:50:09;;;;;;;2.78;2.35;;;8.30;55.80;;;6.97;58.55;102931.88;12172651;19;20015;-87
2022/11/12 06:54:29;;;;;;;2.08;1.80;;;8.50;55.90;;;6.99;58.46;102959.53;12165962;19;20018;-86
2022/11/12 06:58:50;;;;;;;3.28;1.83;;;8.20;55.80;;;6.96;58.56;102959.56;12167717;19;20010;-86
2022/11/12 07:03:13;;;;;;;1.55;1.45;;;8.20;55.70;;;6.96;58.56;102963.91;12159104;19;20922;-86
2022/11/12 07:07:34;;;;;;;2.00;1.60;;;8.20;55.70;;;6.94;58.65;102976.91;12167890;19;20113;-86
2022/11/12 07:11:54;;;;;;;2.47;1.45;;;8.20;55.70;;;6.85;58.55;102961.34;12166396;19;20018;-87
2022/11/12 07:16:17;;;;;;;1.60;1.33;;;8.20;55.70;;;6.75;58.41;102952.75;12155467;19;20018;-86
2022/11/12 07:20:37;;;;;;;3.75;1.67;;;8.10;55.80;;;6.53;58.62;102923.34;12166014;19;20019;-84
2022/11/12 07:24:57;;;;;;;1.30;1.17;;;8.10;55.80;;;6.83;58.40;102974.34;12165025;19;20695;-87
2022/11/12 07:29:18;;;;;;;2.40;1.77;;;8.20;55.90;;;6.85;58.61;102979.53;12166187;19;20014;-87
2022/11/12 07:33:38;;;;;;;2.05;1.95;;;8.10;55.90;;;6.62;58.63;102951.06;12161485;19;20297;-86
2022/11/12 07:37:58;;;;;;;2.65;2.35;;;8.10;56.00;;;6.74;58.73;102976.09;12162636;19;20023;-85
2022/11/12 07:42:18;;;;;;;2.13;2.00;;;8.10;56.10;;;6.83;58.66;102999.44;12155756;19;20383;-85
2022/11/12 07:46:39;;;;;;;1.70;1.60;;;8.30;56.20;;;6.88;58.74;102992.50;12161403;19;20121;-85
2022/11/12 07:51:03;;;;;;;2.22;1.50;;;8.10;56.10;;;6.80;58.67;102989.06;12161678;19;20125;-85
2022/11/12 07:55:24;;;;;;;2.30;2.00;;;8.10;56.60;;;6.41;58.79;102919.06;12156015;19;20011;-86
2022/11/12 07:59:44;;;;;;;2.25;2.03;;;8.10;56.40;;;6.90;58.83;102998.56;12160198;19;20018;-86
2022/11/12 08:04:08;;;;;;;2.22;2.03;;;8.20;56.50;;;6.93;58.62;103000.28;12154936;19;20113;-86
2022/11/12 08:08:28;;;;;;;2.15;1.80;;;8.20;56.70;;;6.95;58.83;102995.94;12166368;19;20900;-89
2022/11/12 08:12:49;;;;;;;2.20;2.03;;;8.20;56.90;;;6.93;58.94;102982.97;12154149;19;20332;-85
2022/11/12 08:17:10;;;;;;;4.18;3.08;;;8.30;57.10;;;7.07;59.04;103001.09;12160299;19;20018;-85
2022/11/12 08:21:30;;;;;;;2.85;2.55;;;8.30;57.30;;;7.11;58.91;102994.16;12159688;19;20849;-84
2022/11/12 08:25:51;;;;;;;3.47;3.08;;;8.40;57.40;;;6.94;59.24;102957.84;12158447;19;20508;-85
2022/11/12 08:30:12;;;;;;;3.55;2.92;;;8.50;57.50;;;7.25;59.25;102998.41;12152090;19;20018;-85
2022/11/12 08:34:32;;;;;;;3.35;2.83;;;8.60;57.80;;;7.32;59.09;102994.06;12162231;19;20502;-86
2022/11/12 08:38:53;;;;;;;4.43;3.13;;;8.70;57.90;;;7.36;59.20;102974.13;12167409;19;20015;-86
2022/11/12 08:43:13;;;;;;;4.00;2.55;;;8.80;58.00;;;7.45;59.38;102995.72;12166419;19;20443;-86
2022/11/12 08:47:33;;;;;;;3.83;3.03;;;8.90;58.20;;;7.54;59.44;102987.88;12167827;19;20670;-86
2022/11/12 08:51:54;;;;;;;3.53;3.08;;;9.00;58.50;;;7.69;59.50;103004.25;12167601;19;20323;-85
2022/11/12 08:56:14;;;;;;;2.47;2.28;;;9.10;58.70;;;7.85;59.48;103003.25;12167368;19;20007;-86
2022/11/12 09:00:39;;;;;;;2.80;2.60;;;9.20;58.80;;;7.88;59.68;102994.56;12160297;19;20030;-86
2022/11/12 09:05:00;;;;;;;2.67;2.42;;;9.30;59.00;;;8.07;59.74;103013.50;12164289;19;20105;-85
2022/11/12 09:09:20;;;;;;;2.50;2.30;;;9.40;59.30;;;8.19;59.82;103005.63;12160835;19;20014;-85
2022/11/12 09:13:41;;;;;;;3.22;2.45;;;9.60;59.50;;;8.26;60.01;102990.78;12152384;19;20028;-85
2022/11/12 09:18:06;;;;;;;2.63;2.40;;;9.70;59.60;;;8.46;60.13;102995.88;12161130;19;20022;-87
2022/11/12 09:22:26;;;;;;;3.17;2.88;;;9.80;59.80;;;8.66;60.15;103003.47;12162413;19;20027;-86
2022/11/12 09:26:47;;;;;;;3.78;2.33;;;10.00;59.80;;;8.75;59.99;102993.81;12159926;19;20395;-86
2022/11/12 09:31:07;;;;;;;3.78;2.67;;;10.10;59.80;;;8.53;60.06;102948.94;12162297;19;20014;-86
2022/11/12 09:35:28;;;;;;;3.20;2.72;;;10.60;60.00;;;8.97;60.26;102998.78;12159104;19;20133;-86
2022/11/12 09:39:48;;;;;;;2.30;2.10;;;10.40;59.90;;;9.15;60.18;103021.16;12163283;19;20014;-85
2022/11/12 09:44:21;;;;;;;2.88;2.20;;;10.60;60.10;;;9.15;60.20;103001.16;12157167;19;20006;-86
2022/11/12 09:48:48;;;;;;;2.60;2.20;;;10.80;60.10;;;9.28;60.32;103009.69;12159771;19;20014;-86
2022/11/12 09:53:49;;;;;;;1.77;1.67;;;10.70;59.90;;;9.37;60.33;103004.38;12152124;19;20018;-86
2022/11/12 09:58:15;;;;;;;3.97;2.20;;;10.90;59.90;;;9.47;60.27;103002.47;12157935;19;20019;-86
2022/11/12 10:02:51;;;;;;;2.63;2.30;;;10.90;59.70;;;9.57;60.62;103019.72;12150580;19;21213;-86
2022/11/12 10:07:25;;;;;;;4.53;2.03;;;11.00;59.70;;;9.67;60.44;103003.06;12168856;19;20026;-86
2022/11/12 10:12:31;;;;;;;2.58;2.10;;;11.10;59.80;;;9.77;60.63;103006.38;12172373;19;20426;-86
2022/11/12 10:17:12;;;;;;;1.98;1.83;;;11.20;59.90;;;9.88;60.64;103009.72;12171255;19;20015;-86
2022/11/12 10:22:00;;;;;;;4.07;2.80;;;11.30;60.10;;;9.98;60.58;103007.81;12170652;19;20018;-86
2022/11/12 10:26:24;;;;;;;6.18;3.45;;;11.50;60.30;;;10.05;60.56;102990.31;12168831;19;20018;-87
2022/11/12 10:30:45;;;;;;;6.93;4.68;;;11.60;60.20;;;10.28;60.63;102998.63;12173186;19;20022;-87
2022/11/12 10:35:06;;;;;;;5.80;4.63;;;11.60;60.40;;;10.38;60.80;103001.94;12165922;19;20455;-87
2022/11/12 10:39:46;;;;;;;6.70;4.38;;;11.80;60.60;;;10.57;60.87;103005.94;12166510;19;20101;-87
2022/11/12 10:44:16;;;;;;;6.28;4.53;;;12.00;60.40;;;10.71;60.90;102999.59;12163740;19;20018;-86
2022/11/12 10:48:36;;;;;;;8.40;4.90;;;12.10;60.00;;;10.60;60.92;102958.88;12168615;19;20022;-86
2022/11/12 10:53:02;;;;;;;5.57;4.45;;;12.30;60.00;;;10.78;60.82;102952.44;12166181;19;20022;-85
2022/11/12 10:57:26;;;;;;;8.07;5.63;;;12.40;60.00;;;11.14;60.91;103007.44;12167404;19;20082;-86
2022/11/12 11:01:59;;;;;;;7.85;4.82;;;12.60;60.20;;;11.24;61.08;102984.59;12175915;19;20018;-86
2022/11/12 11:06:24;;;;;;;7.22;5.60;;;12.70;60.40;;;11.47;61.03;103016.31;12174798;19;20011;-87
2022/11/12 11:10:45;;;;;;;6.03;4.25;;;12.90;60.20;;;11.62;61.08;102978.50;12179466;19;20011;-87
2022/11/12 11:15:14;;;;;;;6.57;4.35;;;13.00;60.10;;;11.74;61.18;102996.50;12149495;19;20770;-88
2022/11/12 11:19:41;;;;;;;7.30;4.10;;;13.20;60.90;;;11.84;61.13;102968.38;12167059;19;20469;-87
2022/11/12 11:24:09;;;;;;;4.18;3.28;;;13.30;60.90;;;12.09;61.12;102986.13;12164460;19;20011;-88
2022/11/12 11:28:53;;;;;;;5.45;3.20;;;13.50;60.50;;;12.22;61.13;102981.44;12177192;19;20018;-86
2022/11/12 11:34:11;;;;;;;3.13;2.70;;;13.60;60.30;;;12.41;61.16;102980.03;12173588;19;20350;-87
2022/11/12 11:38:44;;;;;;;4.05;2.40;;;13.80;60.20;;;12.56;61.07;102963.91;12174546;19;20368;-86
2022/11/12 11:43:42;;;;;;;6.05;2.88;;;14.00;59.80;;;12.69;61.07;102963.56;12174456;19;20015;-86
2022/11/12 11:49:00;;;;;;;2.58;2.17;;;14.10;59.70;;;12.73;61.08;102949.47;12174790;19;20022;-86
2022/11/12 11:53:33;;;;;;;3.05;2.38;;;14.20;59.50;;;12.92;61.03;102963.78;12164122;19;20026;-86
2022/11/12 11:58:12;;;;;;;2.50;2.10;;;14.40;59.50;;;13.02;60.88;102962.59;12163371;19;20639;-85
2022/11/12 12:02:53;;;;;;;2.97;2.10;;;14.50;59.30;;;13.13;60.94;102948.31;12158514;19;21018;-85
2022/11/12 12:07:41;;;;;;;2.53;2.28;;;14.60;59.20;;;13.25;60.94;102953.19;12162881;19;20018;-85
2022/11/12 12:12:46;;;;;;;3.15;2.40;;;14.70;59.30;;;13.34;60.91;102941.56;12163484;19;20015;-86
2022/11/12 12:17:38;;;;;;;3.67;2.15;;;14.80;59.20;;;13.45;60.84;102942.97;12160932;19;20748;-87
2022/11/12 12:22:02;;;;;;;2.92;1.85;;;14.90;59.10;;;13.40;60.96;102920.41;12162672;19;20018;-87
2022/11/12 12:26:41;;;;;;;2.75;1.80;;;15.00;58.90;;;13.66;60.89;102948.41;12164742;19;20051;-87
2022/11/12 12:31:17;;;;;;;1.67;1.58;;;15.00;58.90;;;13.72;60.78;102945.63;12166177;19;20015;-87
2022/11/12 12:35:50;;;;;;;;;;;15.10;58.80;;;13.72;60.85;102935.97;12165821;19;20011;-87
2022/11/12 12:40:27;;;;;;;1.40;1.30;;;15.20;58.80;;;13.70;60.67;102914.13;12175695;19;20290;-87
2022/11/12 12:45:04;;;;;;;2.42;1.80;;;15.30;58.70;;;13.76;60.86;102907.81;12179722;19;20022;-87
2022/11/12 12:49:35;;;;;;;5.32;2.00;;;15.40;58.60;;;14.00;60.80;102937.66;12180167;19;20022;-87
2022/11/12 12:53:56;;;;;;;1.50;1.40;;;15.40;58.40;;;14.11;60.63;102924.16;12178419;19;20019;-88
2022/11/12 12:58:30;;;;;;;2.15;1.80;;;15.50;58.50;;;14.15;60.68;102921.38;12178629;19;20011;-87
2022/11/12 13:02:51;;;;;;;4.13;2.00;;;15.60;58.40;;;14.22;60.67;102910.63;12176635;19;20010;-88
2022/11/12 13:07:11;;;;;;;2.58;2.10;;;15.60;58.40;;;14.30;60.67;102898.94;12187769;19;20477;-88
2022/11/12 13:17:13;;;;;;;4.22;2.30;;;15.70;58.30;;;14.41;60.52;102910.84;12202547;19;20026;-89
2022/11/12 13:21:34;;;;;;;3.10;2.45;;;15.80;58.30;;;14.44;60.44;102900.19;12200446;19;20014;-89
2022/11/12 13:26:45;;;;;;;3.65;2.20;;;15.80;58.20;;;14.52;60.53;102908.66;12196709;19;20024;-89
2022/11/12 13:31:26;;;;;;;7.55;2.40;;;15.90;58.10;;;14.46;60.29;102903.66;12199462;19;20014;-89
2022/11/12 13:35:46;;;;;;;4.68;2.03;;;15.90;58.20;;;14.21;60.55;102849.34;12188462;19;20010;-88
2022/11/12 13:40:19;;;;;;;3.33;2.38;;;15.90;58.30;;;14.38;60.38;102875.00;12199947;19;20022;-89
2022/11/12 13:44:39;;;;;;;3.20;2.10;;;16.00;58.20;;;14.33;60.25;102858.53;12194132;19;20006;-89
2022/11/12 13:49:14;;;;;;;4.57;2.35;;;16.00;58.10;;;14.33;60.27;102855.91;12196906;19;20015;-89
2022/11/12 13:53:34;;;;;;;6.13;2.08;;;16.00;58.10;;;14.37;60.32;102852.28;12192624;19;20299;-89
2022/11/12 13:57:55;;;;;;;3.03;1.98;;;16.00;58.20;;;14.50;60.04;102874.56;12192793;19;20033;-89
2022/11/12 14:02:25;;;;;;;3.25;1.90;;;16.00;58.10;;;14.28;60.10;102858.69;12191742;19;20019;-88
2022/11/12 14:06:51;;;;;;;3.00;1.70;;;16.00;58.10;;;14.67;60.04;102908.16;12185857;19;20026;-89
2022/11/12 14:11:26;;;;;;;3.63;2.67;;;16.00;58.10;;;14.58;60.08;102905.84;12196171;19;20050;-89
2022/11/12 14:16:02;;;;;;;3.07;2.40;;;15.90;58.00;;;14.66;59.96;102919.56;12193065;19;20905;-89
2022/11/12 14:20:34;;;;;;;7.23;2.00;;;15.90;58.00;;;14.45;59.98;102878.28;12194866;19;20279;-92
2022/11/12 14:25:00;;;;;;;7.47;1.92;;;15.90;57.90;;;14.03;60.07;102823.72;12190633;19;20018;-89
2022/11/12 14:29:21;;;;;;;5.32;2.28;;;15.80;58.00;;;14.17;59.85;102845.09;12189120;19;20440;-88
2022/11/12 14:33:45;;;;;;;2.08;1.60;;;15.80;58.00;;;14.39;59.94;102892.47;12180573;19;20019;-89
2022/11/12 14:38:18;;;;;;;3.38;1.95;;;15.70;57.80;;;14.46;59.95;102909.75;12183582;19;20350;-89
2022/11/12 14:42:39;;;;;;;2.35;1.55;;;15.60;57.80;;;13.94;59.74;102840.69;12189432;19;20022;-89
2022/11/12 14:47:00;;;;;;;2.33;1.80;;;15.60;57.80;;;13.89;59.72;102840.84;12196166;19;20055;-89
2022/11/12 14:51:26;;;;;;;4.85;2.00;;;15.50;57.70;;;14.17;59.57;102895.03;12207018;19;20388;-87
2022/11/12 14:56:00;;;;;;;5.32;1.70;;;15.40;57.80;;;13.71;59.70;102831.81;12208168;19;20006;-88
2022/11/12 15:01:21;;;;;;;2.42;1.58;;;15.30;57.80;;;13.66;59.57;102833.78;12200501;19;20558;-88
2022/11/12 15:06:05;;;;;;;4.35;1.70;;;15.30;57.80;;;14.04;59.60;102896.38;12207509;19;20853;-88
2022/11/12 15:10:35;;;;;;;3.10;2.08;;;15.20;57.60;;;13.96;59.58;102894.03;12217107;19;20015;-88
2022/11/12 15:15:21;;;;;;;4.28;2.22;;;15.10;57.60;;;13.52;59.45;102836.00;12211755;19;20018;-89
2022/11/12 15:19:41;;;;;;;5.40;1.70;;;15.00;57.70;;;13.38;59.71;102835.59;12211930;19;20019;-89
2022/11/12 15:24:19;;;;;;;1.58;1.48;;;14.90;57.60;;;13.75;59.58;102894.75;12193176;19;20010;-88
2022/11/12 15:28:40;;;;;;;1.63;1.50;;;14.80;57.50;;;13.42;59.48;102850.31;12195573;19;20810;-88
2022/11/12 15:33:21;;;;;;;1.80;1.58;;;14.80;57.70;;;13.59;59.55;102891.78;12201576;19;20011;-88
2022/11/12 15:37:42;;;;;;;3.28;1.63;;;14.70;57.60;;;13.40;59.46;102865.28;12198393;19;20011;-88
2022/11/12 15:42:16;;;;;;;2.50;2.17;;;14.60;57.50;;;13.43;59.42;102888.81;12201544;19;20379;-88
2022/11/12 15:46:37;;;;;;;1.85;1.52;;;14.50;57.50;;;13.11;59.30;102848.66;12200687;19;20023;-89
2022/11/12 15:50:59;;;;;;;3.05;1.60;;;14.40;57.70;;;12.78;59.40;102806.84;12204680;19;20018;-88
2022/11/12 15:55:19;;;;;;;2.35;1.80;;;14.30;57.40;;;13.13;59.52;102865.22;12184606;19;20019;-88
2022/11/12 15:59:40;;;;;;;3.28;1.85;;;14.30;57.50;;;13.02;59.50;102875.19;12183198;19;20506;-87
2022/11/12 16:04:00;;;;;;;1.98;1.75;;;14.20;57.40;;;13.03;59.54;102890.00;12193467;19;20014;-87
2022/11/12 16:08:21;;;;;;;3.63;2.42;;;14.10;57.40;;;13.01;59.48;102886.56;12193742;19;20315;-88
2022/11/12 16:12:43;;;;;;;4.20;2.63;;;14.00;57.40;;;12.94;59.43;102903.44;12187928;19;20015;-87
2022/11/12 16:17:03;;;;;;;2.78;2.42;;;14.00;57.40;;;12.83;59.39;102891.47;12186080;19;20022;-87
2022/11/12 16:21:23;;;;;;;2.60;2.30;;;13.90;57.40;;;12.81;59.48;102895.06;12184711;19;20916;-88
2022/11/12 16:25:44;;;;;;;3.97;2.65;;;13.80;57.40;;;12.66;59.28;102890.25;12185581;19;20018;-88
2022/11/12 16:30:22;;;;;;;8.63;3.00;;;13.80;57.40;;;12.51;59.30;102881.94;12187150;19;20010;-88
2022/11/12 16:34:41;;;;;;;5.68;2.60;;;13.70;57.30;;;12.48;59.25;102868.06;12186925;19;20014;-89
2022/11/12 16:39:02;;;;;;;5.25;3.08;;;13.70;57.20;;;12.50;59.29;102879.34;12193009;19;20022;-89
2022/11/12 16:43:23;;;;;;;4.75;3.67;;;13.60;57.20;;;12.21;59.39;102852.22;12194647;19;20023;-88
2022/11/12 16:47:52;;;;;;;4.70;3.70;;;13.50;57.20;;;12.14;59.25;102864.63;12197001;19;20014;-88
2022/11/12 16:52:13;;;;;;;7.60;3.90;;;13.40;57.20;;;12.25;59.31;102887.91;12192305;19;20070;-88
2022/11/12 16:56:35;;;;;;;4.68;3.35;;;13.40;57.30;;;12.24;59.20;102893.19;12190402;19;20011;-88
2022/11/12 17:00:55;;;;;;;6.47;3.75;;;13.30;57.20;;;12.14;59.29;102887.34;12196420;19;20022;-89
2022/11/12 17:05:19;;;;;;;6.50;3.95;;;13.30;57.30;;;12.21;59.20;102917.72;12189577;19;20026;-88
2022/11/12 17:09:39;;;;;;;14.95;6.55;;;13.20;57.20;;;12.00;59.22;102892.09;12198291;19;20014;-88
2022/11/12 17:14:01;;;;;;;9.75;7.45;;;13.10;57.20;;;12.08;59.16;102905.84;12188443;19;20018;-88
2022/11/12 17:18:21;;;;;;;10.50;6.70;;;13.00;57.10;;;11.90;59.02;102889.69;12187808;19;20022;-88
2022/11/12 17:22:41;;;;;;;7.30;5.63;;;13.00;57.10;;;11.92;59.17;102900.16;12191758;19;20015;-88
2022/11/12 17:27:02;;;;;;;7.40;5.80;;;12.90;57.00;;;11.73;59.30;102879.63;12191282;19;20023;-89
2022/11/12 17:31:22;;;;;;;6.70;4.40;;;12.80;57.10;;;11.68;59.04;102885.88;12188664;19;20419;-88
2022/11/12 17:35:42;;;;;;;3.75;3.25;;;12.80;56.80;;;11.68;59.22;102899.81;12178892;19;20022;-88
2022/11/12 17:40:04;;;;;;;4.82;3.28;;;12.70;56.90;;;11.48;58.96;102889.84;12189142;19;20015;-88
2022/11/12 17:44:24;;;;;;;3.40;3.10;;;12.60;56.90;;;11.17;59.02;102844.41;12184606;19;20019;-88
2022/11/12 17:48:48;;;;;;;3.33;2.50;;;12.50;56.80;;;10.93;59.10;102822.28;12186168;19;20039;-88
2022/11/12 17:53:09;;;;;;;3.08;2.28;;;12.50;57.20;;;11.15;58.95;102864.47;12190542;19;20018;-89
2022/11/12 17:57:29;;;;;;;2.25;2.05;;;12.40;56.80;;;11.16;59.04;102884.53;12187441;19;20749;-89
2022/11/12 18:01:50;;;;;;;4.97;2.03;;;12.30;56.60;;;11.06;58.86;102884.72;12187345;19;20071;-88
2022/11/12 18:06:13;;;;;;;2.10;1.55;;;12.10;56.90;;;10.96;58.85;102890.19;12181993;19;20918;-88
2022/11/12 18:10:34;;;;;;;3.38;2.08;;;12.10;56.70;;;10.98;59.09;102912.78;12170189;19;20599;-88
2022/11/12 18:14:54;;;;;;;4.28;2.22;;;11.90;56.60;;;10.83;58.75;102914.00;12172956;19;21258;-88
2022/11/12 18:19:15;;;;;;;2.60;1.90;;;11.90;56.60;;;10.70;58.79;102906.44;12180880;19;20022;-88
2022/11/12 18:23:42;;;;;;;2.17;1.88;;;11.70;56.70;;;10.56;59.06;102889.28;12184474;19;20117;-88
2022/11/12 18:28:02;;;;;;;5.53;2.38;;;11.70;56.80;;;10.61;59.03;102905.72;12199652;19;20022;-89
2022/11/12 18:32:23;;;;;;;3.55;2.58;;;11.70;57.00;;;10.55;59.11;102902.38;12196010;19;20565;-89
2022/11/12 18:36:43;;;;;;;3.65;2.75;;;11.50;57.10;;;10.51;59.06;102913.78;12193583;19;20495;-90
2022/11/12 18:41:10;;;;;;;3.92;3.40;;;11.50;57.20;;;9.98;59.03;102832.94;12201052;19;20022;-90
2022/11/12 18:45:30;;;;;;;3.38;2.85;;;11.50;57.30;;;10.35;59.19;102898.41;12200011;19;20010;-89
2022/11/12 18:49:53;;;;;;;5.90;3.50;;;11.40;57.30;;;10.13;59.03;102858.75;12201122;19;20324;-91